Time,TemperatureF,DewpointF,PressureIn,WindDirection,WindDirectionDegrees,WindSpeedMPH,WindSpeedGustMPH,Humidity,HourlyPrecipIn,Conditions,Clouds,dailyrainin,SoftwareType,DateUTC
2013-05-28 00:01:00,63.4,53.6,30.17,WNW,295,0.0,0.0,70,0.00,,,0.00,WUHU216DAVISVP2,2013-05-28 04:01:00,
2013-05-28 00:02:00,63.4,53.6,30.17,WNW,295,0.0,0.0,70,0.00,,,0.00,WUHU216DAVISVP2,2013-05-28 04:02:00,
2013-05-28 00:07:00,63.4,53.2,30.17,WNW,295,0.0,0.0,69,0.00,,,0.00,WUHU216DAVISVP2,2013-05-28 04:07:00,
2013-05-28 00:12:00,63.5,53.7,30.17,WNW,295,0.0,0.0,70,0.00,,,0.00,WUHU216DAVISVP2,2013-05-28 04:12:00,
2013-05-28 00:17:00,63.5,53.3,30.16,WNW,295,0.0,2.0,69,0.00,,,0.00,WUHU216DAVISVP2,2013-05-28 04:17:00,
2013-05-28 00:22:00,63.5,53.5,30.16,WNW,295,0.0,2.0,70,0.00,,,0.00,WUHU216DAVISVP2,2013-05-28 04:22:00,
2013-05-28 00:27:00,63.7,53.7,30.16,WNW,295,0.0,0.0,70,0.00,,,0.00,WUHU216DAVISVP2,2013-05-28 04:27:00,
2013-05-28 00:32:00,63.5,53.7,30.16,WNW,295,0.0,0.0,70,0.00,,,0.00,WUHU216DAVISVP2,2013-05-28 04:32:00,
2013-05-28 00:37:00,63.7,53.9,30.16,WNW,295,0.0,0.0,70,0.00,,,0.00,WUHU216DAVISVP2,2013-05-28 04:37:00,
2013-05-28 00:42:00,63.7,53.9,30.16,SSW,208,0.0,4.0,70,0.00,,,0.00,WUHU216DAVISVP2,2013-05-28 04:42:00,
2013-05-28 00:47:00,63.5,53.7,30.16,SSW,208,0.0,4.0,70,0.00,,,0.00,WUHU216DAVISVP2,2013-05-28 04:47:00,
2013-05-28 00:52:00,63.5,53.7,30.16,SSW,208,0.0,1.0,70,0.00,,,0.00,WUHU216DAVISVP2,2013-05-28 04:52:00,
2013-05-28 00:57:00,63.4,53.6,30.16,SSW,208,0.0,0.0,70,0.00,,,0.00,WUHU216DAVISVP2,2013-05-28 04:57:00,
2013-05-28 01:02:00,63.4,54.0,30.16,SSW,208,0.0,0.0,71,0.00,,,0.00,WUHU216DAVISVP2,2013-05-28 05:02:00,
2013-05-28 01:07:00,63.2,53.8,30.16,South,178,0.0,0.0,71,0.00,,,0.00,WUHU216DAVISVP2,2013-05-28 05:07:00,
2013-05-28 01:12:00,63.2,53.8,30.16,South,178,0.0,0.0,71,0.00,,,0.00,WUHU216DAVISVP2,2013-05-28 05:12:00,
2013-05-28 01:17:00,63.1,53.7,30.16,South,178,0.0,0.0,71,0.00,,,0.00,WUHU216DAVISVP2,2013-05-28 05:17:00,
2013-05-28 01:22:00,63.1,54.1,30.16,South,178,0.0,0.0,72,0.00,,,0.00,WUHU216DAVISVP2,2013-05-28 05:22:00,
2013-05-28 01:27:00,62.9,53.7,30.16,South,178,0.0,0.0,72,0.00,,,0.00,WUHU216DAVISVP2,2013-05-28 05:27:00,
2013-05-28 01:32:00,62.7,53.5,30.16,South,178,0.0,0.0,72,0.00,,,0.00,WUHU216DAVISVP2,2013-05-28 05:32:00,
2013-05-28 01:37:00,62.6,53.4,30.16,South,178,0.0,0.0,72,0.00,,,0.00,WUHU216DAVISVP2,2013-05-28 05:37:00,
2013-05-28 01:42:00,62.6,53.4,30.16,South,178,0.0,0.0,72,0.00,,,0.00,WUHU216DAVISVP2,2013-05-28 05:42:00,
2013-05-28 01:47:00,62.4,53.3,30.16,South,178,0.0,0.0,72,0.00,,,0.00,WUHU216DAVISVP2,2013-05-28 05:47:00,
2013-05-28 01:52:00,62.4,53.6,30.16,South,178,0.0,0.0,73,0.00,,,0.00,WUHU216DAVISVP2,2013-05-28 05:52:00,
2013-05-28 01:57:00,62.3,53.5,30.16,South,178,0.0,0.0,73,0.00,,,0.00,WUHU216DAVISVP2,2013-05-28 05:57:00,
2013-05-28 02:02:00,62.1,53.3,30.15,South,178,0.0,0.0,73,0.00,,,0.00,WUHU216DAVISVP2,2013-05-28 06:02:00,
2013-05-28 02:07:00,62.1,53.5,30.15,South,178,0.0,0.0,73,0.00,,,0.00,WUHU216DAVISVP2,2013-05-28 06:07:00,
2013-05-28 02:11:00,62.0,53.7,30.15,South,178,0.0,0.0,74,0.00,,,0.00,WUHU216DAVISVP2,2013-05-28 06:11:00,
2013-05-28 02:16:00,61.8,53.5,30.16,South,178,0.0,0.0,74,0.00,,,0.00,WUHU216DAVISVP2,2013-05-28 06:16:00,
2013-05-28 02:21:00,61.6,53.2,30.16,South,178,0.0,0.0,74,0.00,,,0.00,WUHU216DAVISVP2,2013-05-28 06:21:00,
2013-05-28 02:26:00,61.6,53.6,30.16,South,178,0.0,0.0,75,0.00,,,0.00,WUHU216DAVISVP2,2013-05-28 06:26:00,
2013-05-28 02:31:00,61.5,53.5,30.15,South,178,0.0,0.0,75,0.00,,,0.00,WUHU216DAVISVP2,2013-05-28 06:31:00,
2013-05-28 02:36:00,61.3,53.3,30.15,South,178,0.0,0.0,75,0.00,,,0.00,WUHU216DAVISVP2,2013-05-28 06:36:00,
2013-05-28 02:41:00,61.3,53.3,30.15,South,178,0.0,0.0,75,0.00,,,0.00,WUHU216DAVISVP2,2013-05-28 06:41:00,
2013-05-28 02:46:00,61.2,53.7,30.15,South,178,0.0,0.0,76,0.00,,,0.00,WUHU216DAVISVP2,2013-05-28 06:46:00,
2013-05-28 02:51:00,61.2,53.7,30.15,South,178,0.0,0.0,76,0.00,,,0.00,WUHU216DAVISVP2,2013-05-28 06:51:00,
2013-05-28 02:56:00,61.0,53.5,30.15,South,178,0.0,0.0,76,0.00,,,0.00,WUHU216DAVISVP2,2013-05-28 06:56:00,
2013-05-28 03:01:00,61.0,53.8,30.15,South,178,0.0,0.0,77,0.00,,,0.00,WUHU216DAVISVP2,2013-05-28 07:01:00,
2013-05-28 03:06:00,60.9,53.7,30.15,South,178,0.0,0.0,77,0.00,,,0.00,WUHU216DAVISVP2,2013-05-28 07:06:00,
2013-05-28 03:11:00,60.9,53.7,30.15,South,178,0.0,0.0,77,0.00,,,0.00,WUHU216DAVISVP2,2013-05-28 07:11:00,
2013-05-28 03:16:00,60.7,53.5,30.15,South,178,0.0,0.0,77,0.00,,,0.00,WUHU216DAVISVP2,2013-05-28 07:16:00,
2013-05-28 03:21:00,60.7,53.5,30.15,South,178,0.0,0.0,77,0.00,,,0.00,WUHU216DAVISVP2,2013-05-28 07:21:00,
2013-05-28 03:26:00,60.5,53.3,30.15,South,178,0.0,0.0,77,0.00,,,0.00,WUHU216DAVISVP2,2013-05-28 07:26:00,
2013-05-28 03:31:00,60.5,53.7,30.14,South,178,0.0,0.0,78,0.00,,,0.00,WUHU216DAVISVP2,2013-05-28 07:31:00,
2013-05-28 03:36:00,60.4,53.6,30.14,South,178,0.0,0.0,78,0.00,,,0.00,WUHU216DAVISVP2,2013-05-28 07:36:00,
2013-05-28 03:41:00,60.4,53.6,30.14,South,178,0.0,0.0,78,0.00,,,0.00,WUHU216DAVISVP2,2013-05-28 07:41:00,
2013-05-28 03:46:00,60.4,53.9,30.14,South,178,0.0,0.0,79,0.00,,,0.00,WUHU216DAVISVP2,2013-05-28 07:46:00,
2013-05-28 03:51:00,60.4,53.9,30.14,South,178,0.0,0.0,79,0.00,,,0.00,WUHU216DAVISVP2,2013-05-28 07:51:00,
2013-05-28 03:56:00,60.2,53.7,30.14,South,178,0.0,0.0,79,0.00,,,0.00,WUHU216DAVISVP2,2013-05-28 07:56:00,
2013-05-28 04:01:00,60.2,53.7,30.14,South,178,0.0,0.0,79,0.00,,,0.00,WUHU216DAVISVP2,2013-05-28 08:01:00,
2013-05-28 04:06:00,60.2,53.7,30.14,South,178,0.0,0.0,79,0.00,,,0.00,WUHU216DAVISVP2,2013-05-28 08:06:00,
2013-05-28 04:11:00,60.2,53.7,30.14,South,178,0.0,0.0,79,0.00,,,0.00,WUHU216DAVISVP2,2013-05-28 08:11:00,
2013-05-28 04:16:00,60.2,54.1,30.14,South,178,0.0,0.0,80,0.00,,,0.00,WUHU216DAVISVP2,2013-05-28 08:16:00,
2013-05-28 04:21:00,60.2,54.1,30.14,South,178,0.0,0.0,80,0.00,,,0.00,WUHU216DAVISVP2,2013-05-28 08:21:00,
2013-05-28 04:26:00,60.2,54.1,30.14,South,178,0.0,0.0,80,0.00,,,0.00,WUHU216DAVISVP2,2013-05-28 08:26:00,
2013-05-28 04:31:00,60.2,54.4,30.14,South,178,0.0,0.0,81,0.00,,,0.00,WUHU216DAVISVP2,2013-05-28 08:31:00,
2013-05-28 04:36:00,60.2,54.4,30.14,South,178,0.0,0.0,81,0.00,,,0.00,WUHU216DAVISVP2,2013-05-28 08:36:00,
2013-05-28 04:41:00,60.4,54.6,30.14,South,178,0.0,0.0,81,0.00,,,0.00,WUHU216DAVISVP2,2013-05-28 08:41:00,
2013-05-28 04:46:00,60.2,54.4,30.15,South,178,0.0,0.0,81,0.00,,,0.00,WUHU216DAVISVP2,2013-05-28 08:46:00,
2013-05-28 04:51:00,60.2,54.4,30.15,South,178,0.0,0.0,81,0.00,,,0.00,WUHU216DAVISVP2,2013-05-28 08:51:00,
2013-05-28 04:56:00,60.2,54.4,30.15,South,178,0.0,0.0,81,0.00,,,0.00,WUHU216DAVISVP2,2013-05-28 08:56:00,
2013-05-28 05:01:00,60.2,54.4,30.15,South,178,0.0,0.0,81,0.00,,,0.00,WUHU216DAVISVP2,2013-05-28 09:01:00,
2013-05-28 05:06:00,60.2,54.7,30.15,South,178,0.0,0.0,82,0.00,,,0.00,WUHU216DAVISVP2,2013-05-28 09:06:00,
2013-05-28 05:13:00,60.1,54.6,30.15,South,178,0.0,0.0,82,0.00,,,0.00,WUHU216DAVISVP2,2013-05-28 09:13:00,
2013-05-28 05:18:00,60.1,54.6,30.15,South,178,0.0,0.0,82,0.00,,,0.00,WUHU216DAVISVP2,2013-05-28 09:18:00,
2013-05-28 05:23:00,60.1,54.6,30.15,South,178,0.0,0.0,82,0.00,,,0.00,WUHU216DAVISVP2,2013-05-28 09:23:00,
2013-05-28 05:28:00,60.1,54.6,30.15,South,178,0.0,0.0,82,0.00,,,0.00,WUHU216DAVISVP2,2013-05-28 09:28:00,
2013-05-28 05:33:00,60.1,54.6,30.15,South,178,0.0,0.0,82,0.00,,,0.00,WUHU216DAVISVP2,2013-05-28 09:33:00,
2013-05-28 05:38:00,60.1,54.6,30.15,South,178,0.0,0.0,82,0.00,,,0.00,WUHU216DAVISVP2,2013-05-28 09:38:00,
2013-05-28 05:43:00,60.1,54.6,30.15,South,178,0.0,0.0,82,0.00,,,0.00,WUHU216DAVISVP2,2013-05-28 09:43:00,
2013-05-28 05:47:00,59.9,54.8,30.16,South,178,0.0,0.0,83,0.00,,,0.00,WUHU216DAVISVP2,2013-05-28 09:47:00,
2013-05-28 05:52:00,59.9,54.8,30.16,South,178,0.0,0.0,83,0.00,,,0.00,WUHU216DAVISVP2,2013-05-28 09:52:00,
2013-05-28 05:57:00,60.1,54.9,30.16,South,178,0.0,0.0,83,0.00,,,0.00,WUHU216DAVISVP2,2013-05-28 09:57:00,
2013-05-28 06:02:00,60.2,55.4,30.16,South,178,0.0,0.0,84,0.00,,,0.00,WUHU216DAVISVP2,2013-05-28 10:02:00,
2013-05-28 06:07:00,60.4,55.6,30.16,South,178,0.0,0.0,84,0.00,,,0.00,WUHU216DAVISVP2,2013-05-28 10:07:00,
2013-05-28 06:12:00,60.5,55.7,30.16,South,178,0.0,0.0,84,0.00,,,0.00,WUHU216DAVISVP2,2013-05-28 10:12:00,
2013-05-28 06:17:00,60.7,55.9,30.17,South,178,0.0,0.0,84,0.00,,,0.00,WUHU216DAVISVP2,2013-05-28 10:17:00,
2013-05-28 06:22:00,60.9,56.4,30.17,South,178,0.0,0.0,85,0.00,,,0.00,WUHU216DAVISVP2,2013-05-28 10:22:00,
2013-05-28 06:27:00,61.0,56.5,30.17,South,178,0.0,0.0,85,0.00,,,0.00,WUHU216DAVISVP2,2013-05-28 10:27:00,
2013-05-28 06:32:00,61.2,56.7,30.18,South,178,0.0,0.0,85,0.00,,,0.00,WUHU216DAVISVP2,2013-05-28 10:32:00,
2013-05-28 06:37:00,61.3,56.8,30.18,South,178,0.0,0.0,85,0.00,,,0.00,WUHU216DAVISVP2,2013-05-28 10:37:00,
2013-05-28 06:42:00,61.5,57.0,30.18,South,178,0.0,0.0,85,0.00,,,0.00,WUHU216DAVISVP2,2013-05-28 10:42:00,
2013-05-28 06:47:00,61.6,57.1,30.18,South,191,0.0,0.0,85,0.00,,,0.00,WUHU216DAVISVP2,2013-05-28 10:47:00,
2013-05-28 06:52:00,61.8,57.2,30.18,South,191,0.0,0.0,85,0.00,,,0.00,WUHU216DAVISVP2,2013-05-28 10:52:00,
2013-05-28 06:57:00,62.0,57.4,30.18,South,191,0.0,0.0,85,0.00,,,0.00,WUHU216DAVISVP2,2013-05-28 10:57:00,
2013-05-28 07:02:00,62.1,57.5,30.18,South,191,0.0,0.0,85,0.00,,,0.00,WUHU216DAVISVP2,2013-05-28 11:02:00,
2013-05-28 07:07:00,62.4,57.8,30.18,South,191,0.0,0.0,85,0.00,,,0.00,WUHU216DAVISVP2,2013-05-28 11:07:00,
2013-05-28 07:12:00,62.6,58.4,30.18,South,191,0.0,0.0,86,0.00,,,0.00,WUHU216DAVISVP2,2013-05-28 11:12:00,
2013-05-28 07:17:00,62.9,58.6,30.20,South,191,0.0,0.0,86,0.00,,,0.00,WUHU216DAVISVP2,2013-05-28 11:17:00,
2013-05-28 07:22:00,63.1,58.8,30.20,South,191,0.0,0.0,86,0.00,,,0.00,WUHU216DAVISVP2,2013-05-28 11:22:00,
2013-05-28 07:27:00,63.2,58.9,30.20,South,191,0.0,0.0,86,0.00,,,0.00,WUHU216DAVISVP2,2013-05-28 11:27:00,
2013-05-28 07:32:00,63.7,59.8,30.20,South,191,0.0,0.0,87,0.00,,,0.00,WUHU216DAVISVP2,2013-05-28 11:32:00,
2013-05-28 07:37:00,64.2,59.9,30.20,South,191,0.0,0.0,86,0.00,,,0.00,WUHU216DAVISVP2,2013-05-28 11:37:00,
2013-05-28 07:42:00,64.5,59.9,30.20,South,191,0.0,0.0,85,0.00,,,0.00,WUHU216DAVISVP2,2013-05-28 11:42:00,
2013-05-28 07:47:00,64.8,60.2,30.21,South,191,0.0,0.0,85,0.00,,,0.00,WUHU216DAVISVP2,2013-05-28 11:47:00,
2013-05-28 07:52:00,65.0,60.4,30.21,South,191,0.0,0.0,85,0.00,,,0.00,WUHU216DAVISVP2,2013-05-28 11:52:00,
2013-05-28 07:57:00,65.6,61.0,30.21,South,191,0.0,0.0,85,0.00,,,0.00,WUHU216DAVISVP2,2013-05-28 11:57:00,
2013-05-28 08:02:00,66.3,61.7,30.20,South,191,0.0,0.0,85,0.00,,,0.00,WUHU216DAVISVP2,2013-05-28 12:02:00,
2013-05-28 08:07:00,66.8,62.2,30.20,South,191,0.0,0.0,85,0.00,,,0.00,WUHU216DAVISVP2,2013-05-28 12:07:00,
2013-05-28 08:12:00,66.9,61.9,30.20,South,191,0.0,0.0,84,0.00,,,0.00,WUHU216DAVISVP2,2013-05-28 12:12:00,
2013-05-28 08:17:00,67.6,62.3,30.20,South,189,0.0,0.0,83,0.00,,,0.00,WUHU216DAVISVP2,2013-05-28 12:17:00,
2013-05-28 08:22:00,68.1,62.8,30.20,South,191,0.0,0.0,83,0.00,,,0.00,WUHU216DAVISVP2,2013-05-28 12:22:00,
2013-05-28 08:27:00,68.4,62.7,30.20,WSW,256,0.0,2.0,82,0.00,,,0.00,WUHU216DAVISVP2,2013-05-28 12:27:00,
2013-05-28 08:32:00,68.9,63.2,30.21,WSW,256,0.0,2.0,82,0.00,,,0.00,WUHU216DAVISVP2,2013-05-28 12:32:00,
2013-05-28 08:37:00,69.4,63.7,30.21,NW,326,0.0,4.0,82,0.00,,,0.00,WUHU216DAVISVP2,2013-05-28 12:37:00,
2013-05-28 08:42:00,69.8,63.8,30.21,North,350,0.0,4.0,81,0.00,,,0.00,WUHU216DAVISVP2,2013-05-28 12:42:00,
2013-05-28 08:47:00,69.9,63.9,30.21,NNE,17,0.0,4.0,81,0.00,,,0.00,WUHU216DAVISVP2,2013-05-28 12:47:00,
2013-05-28 08:52:00,69.9,63.5,30.21,NNE,17,0.0,1.0,80,0.00,,,0.00,WUHU216DAVISVP2,2013-05-28 12:52:00,
2013-05-28 08:57:00,69.9,63.5,30.21,NNE,17,0.0,0.0,80,0.00,,,0.00,WUHU216DAVISVP2,2013-05-28 12:57:00,
2013-05-28 09:02:00,69.9,63.5,30.22,NNE,20,0.0,0.0,80,0.00,,,0.00,WUHU216DAVISVP2,2013-05-28 13:02:00,
2013-05-28 09:07:00,70.1,63.7,30.22,NNE,30,1.0,1.0,80,0.00,,,0.00,WUHU216DAVISVP2,2013-05-28 13:07:00,
2013-05-28 09:12:00,70.3,63.9,30.22,SE,136,0.0,1.0,80,0.00,,,0.00,WUHU216DAVISVP2,2013-05-28 13:12:00,
2013-05-28 09:17:00,70.4,64.0,30.22,SE,136,0.0,0.0,80,0.00,,,0.00,WUHU216DAVISVP2,2013-05-28 13:17:00,
2013-05-28 09:22:00,70.8,64.4,30.22,SE,140,0.0,0.0,80,0.00,,,0.00,WUHU216DAVISVP2,2013-05-28 13:22:00,
2013-05-28 09:27:00,71.1,64.7,30.22,SE,140,0.0,0.0,80,0.00,,,0.00,WUHU216DAVISVP2,2013-05-28 13:27:00,
2013-05-28 09:32:00,71.6,64.8,30.21,SE,138,0.0,0.0,79,0.00,,,0.00,WUHU216DAVISVP2,2013-05-28 13:32:00,
2013-05-28 09:37:00,72.3,65.2,30.21,SE,138,0.0,0.0,78,0.00,,,0.00,WUHU216DAVISVP2,2013-05-28 13:37:00,
2013-05-28 09:42:00,72.8,65.7,30.21,SSE,165,0.0,2.0,78,0.00,,,0.00,WUHU216DAVISVP2,2013-05-28 13:42:00,
2013-05-28 09:47:00,73.2,65.3,30.21,NW,325,0.0,8.0,76,0.00,,,0.00,WUHU216DAVISVP2,2013-05-28 13:47:00,
2013-05-28 09:52:00,73.5,65.6,30.21,NNW,337,0.0,8.0,76,0.00,,,0.00,WUHU216DAVISVP2,2013-05-28 13:52:00,
2013-05-28 09:57:00,74.4,66.1,30.21,WSW,241,0.0,8.0,75,0.00,,,0.00,WUHU216DAVISVP2,2013-05-28 13:57:00,
2013-05-28 10:02:00,74.9,65.8,30.20,North,350,2.0,7.0,73,0.00,,,0.00,WUHU216DAVISVP2,2013-05-28 14:02:00,
2013-05-28 10:07:00,75.1,65.6,30.20,North,4,0.0,7.0,72,0.00,,,0.00,WUHU216DAVISVP2,2013-05-28 14:07:00,
2013-05-28 10:12:00,75.3,65.4,30.20,South,184,0.0,4.0,71,0.00,,,0.00,WUHU216DAVISVP2,2013-05-28 14:12:00,
2013-05-28 10:17:00,75.4,65.1,30.20,NE,38,0.0,4.0,70,0.00,,,0.00,WUHU216DAVISVP2,2013-05-28 14:17:00,
2013-05-28 10:22:00,75.6,65.7,30.20,NE,38,0.0,2.0,71,0.00,,,0.00,WUHU216DAVISVP2,2013-05-28 14:22:00,
2013-05-28 10:27:00,75.4,65.1,30.20,NE,34,0.0,1.0,70,0.00,,,0.00,WUHU216DAVISVP2,2013-05-28 14:27:00,
2013-05-28 10:32:00,75.1,64.4,30.20,East,88,0.0,1.0,69,0.00,,,0.00,WUHU216DAVISVP2,2013-05-28 14:32:00,
2013-05-28 10:37:00,74.7,64.1,30.20,ENE,76,0.0,2.0,69,0.00,,,0.00,WUHU216DAVISVP2,2013-05-28 14:37:00,
2013-05-28 10:42:00,74.7,64.5,30.20,NW,316,0.0,2.0,70,0.00,,,0.00,WUHU216DAVISVP2,2013-05-28 14:42:00,
2013-05-28 10:47:00,74.9,64.7,30.20,SSW,206,0.0,2.0,70,0.00,,,0.00,WUHU216DAVISVP2,2013-05-28 14:47:00,
2013-05-28 10:52:00,75.1,64.8,30.20,NNE,14,0.0,6.0,70,0.00,,,0.00,WUHU216DAVISVP2,2013-05-28 14:52:00,
2013-05-28 10:57:00,75.3,64.0,30.20,SSE,160,0.0,6.0,68,0.00,,,0.00,WUHU216DAVISVP2,2013-05-28 14:57:00,
2013-05-28 11:03:00,75.4,64.1,30.20,WSW,241,0.0,7.0,68,0.00,,,0.00,WUHU216DAVISVP2,2013-05-28 15:03:00,
2013-05-28 11:08:00,76.0,65.5,30.20,South,175,0.0,7.0,70,0.00,,,0.00,WUHU216DAVISVP2,2013-05-28 15:08:00,
2013-05-28 11:13:00,76.7,65.3,30.20,NE,54,0.0,7.0,68,0.00,,,0.00,WUHU216DAVISVP2,2013-05-28 15:13:00,
2013-05-28 11:18:00,77.4,65.8,30.20,NW,316,0.0,4.0,67,0.00,,,0.00,WUHU216DAVISVP2,2013-05-28 15:18:00,
2013-05-28 11:23:00,77.7,65.7,30.20,NE,52,0.0,4.0,66,0.00,,,0.00,WUHU216DAVISVP2,2013-05-28 15:23:00,
2013-05-28 11:28:00,78.1,66.0,30.20,NNE,27,0.0,4.0,66,0.00,,,0.00,WUHU216DAVISVP2,2013-05-28 15:28:00,
2013-05-28 11:33:00,78.6,66.1,30.20,NNE,30,0.0,4.0,65,0.00,,,0.00,WUHU216DAVISVP2,2013-05-28 15:33:00,
2013-05-28 11:38:00,79.2,66.4,30.20,SSE,161,0.0,4.0,65,0.00,,,0.00,WUHU216DAVISVP2,2013-05-28 15:38:00,
2013-05-28 11:43:00,78.8,64.7,30.19,WNW,284,0.0,7.0,62,0.00,,,0.00,WUHU216DAVISVP2,2013-05-28 15:43:00,
2013-05-28 11:48:00,78.6,65.6,30.19,ENE,73,1.0,7.0,64,0.00,,,0.00,WUHU216DAVISVP2,2013-05-28 15:48:00,
2013-05-28 11:53:00,79.0,65.6,30.19,NE,37,0.0,4.0,63,0.00,,,0.00,WUHU216DAVISVP2,2013-05-28 15:53:00,
2013-05-28 11:58:00,79.6,66.6,30.19,SSE,165,1.0,4.0,64,0.00,,,0.00,WUHU216DAVISVP2,2013-05-28 15:58:00,
2013-05-28 12:03:00,79.8,65.9,30.19,NNE,27,0.0,8.0,62,0.00,,,0.00,WUHU216DAVISVP2,2013-05-28 16:03:00,
2013-05-28 12:08:00,80.1,65.9,30.19,East,85,0.0,8.0,62,0.00,,,0.00,WUHU216DAVISVP2,2013-05-28 16:08:00,
2013-05-28 12:13:00,80.3,65.1,30.18,NE,42,1.0,7.0,60,0.00,,,0.00,WUHU216DAVISVP2,2013-05-28 16:13:00,
2013-05-28 12:18:00,80.3,66.3,30.18,ENE,73,0.0,4.0,62,0.00,,,0.00,WUHU216DAVISVP2,2013-05-28 16:18:00,
2013-05-28 12:23:00,80.3,65.9,30.18,NE,54,0.0,6.0,61,0.00,,,0.00,WUHU216DAVISVP2,2013-05-28 16:23:00,
2013-05-28 12:28:00,80.5,66.1,30.18,East,80,0.0,6.0,61,0.00,,,0.00,WUHU216DAVISVP2,2013-05-28 16:28:00,
2013-05-28 12:33:00,80.7,65.8,30.18,East,79,4.0,8.0,60,0.00,,,0.00,WUHU216DAVISVP2,2013-05-28 16:33:00,
2013-05-28 12:38:00,80.9,66.0,30.18,ESE,123,0.0,8.0,60,0.00,,,0.00,WUHU216DAVISVP2,2013-05-28 16:38:00,
2013-05-28 12:43:00,80.7,65.3,30.18,East,100,0.0,4.0,59,0.00,,,0.00,WUHU216DAVISVP2,2013-05-28 16:43:00,
2013-05-28 12:48:00,80.5,65.6,30.18,North,0,0.0,4.0,60,0.00,,,0.00,WUHU216DAVISVP2,2013-05-28 16:48:00,
2013-05-28 12:53:00,80.7,66.0,30.18,WSW,253,6.0,6.0,61,0.00,,,0.00,WUHU216DAVISVP2,2013-05-28 16:53:00,
2013-05-28 12:58:00,80.7,65.5,30.18,NE,56,0.0,6.0,60,0.00,,,0.00,WUHU216DAVISVP2,2013-05-28 16:58:00,
2013-05-28 13:03:00,81.2,67.7,30.16,WNW,298,1.0,6.0,63,0.00,,,0.00,WUHU216DAVISVP2,2013-05-28 17:03:00,
2013-05-28 13:08:00,81.4,66.9,30.16,SE,137,0.0,6.0,61,0.00,,,0.00,WUHU216DAVISVP2,2013-05-28 17:08:00,
2013-05-28 13:13:00,81.8,66.3,30.16,NNE,25,0.0,4.0,59,0.00,,,0.00,WUHU216DAVISVP2,2013-05-28 17:13:00,
2013-05-28 13:18:00,82.2,67.2,30.16,NNW,339,0.0,1.0,60,0.00,,,0.00,WUHU216DAVISVP2,2013-05-28 17:18:00,
2013-05-28 13:23:00,82.4,67.1,30.16,SSE,155,1.0,8.0,60,0.00,,,0.00,WUHU216DAVISVP2,2013-05-28 17:23:00,
2013-05-28 13:28:00,82.2,66.7,30.16,North,10,2.0,8.0,59,0.00,,,0.00,WUHU216DAVISVP2,2013-05-28 17:28:00,
2013-05-28 13:33:00,82.2,66.2,30.16,SE,145,0.0,6.0,58,0.00,,,0.00,WUHU216DAVISVP2,2013-05-28 17:33:00,
2013-05-28 13:38:00,82.2,66.7,30.16,East,88,1.0,6.0,59,0.00,,,0.00,WUHU216DAVISVP2,2013-05-28 17:38:00,
2013-05-28 13:43:00,82.4,65.9,30.15,NE,37,0.0,6.0,57,0.00,,,0.00,WUHU216DAVISVP2,2013-05-28 17:43:00,
2013-05-28 13:48:00,82.4,65.9,30.15,East,79,0.0,6.0,57,0.00,,,0.00,WUHU216DAVISVP2,2013-05-28 17:48:00,
2013-05-28 13:53:00,82.8,67.7,30.15,NNW,332,0.0,6.0,60,0.00,,,0.00,WUHU216DAVISVP2,2013-05-28 17:53:00,
2013-05-28 13:58:00,83.0,66.2,30.14,NW,319,0.0,7.0,57,0.00,,,0.00,WUHU216DAVISVP2,2013-05-28 17:58:00,
2013-05-28 14:03:00,82.8,66.0,30.14,NNE,31,0.0,13.0,57,0.00,,,0.00,WUHU216DAVISVP2,2013-05-28 18:03:00,
2013-05-28 14:08:00,82.8,66.7,30.14,NW,311,0.0,13.0,58,0.00,,,0.00,WUHU216DAVISVP2,2013-05-28 18:08:00,
2013-05-28 14:13:00,83.0,67.4,30.13,NNW,344,0.0,8.0,59,0.00,,,0.00,WUHU216DAVISVP2,2013-05-28 18:13:00,
2013-05-28 14:18:00,82.8,66.7,30.13,NNW,342,1.0,9.0,58,0.00,,,0.00,WUHU216DAVISVP2,2013-05-28 18:18:00,
2013-05-28 14:23:00,83.0,65.7,30.13,East,86,0.0,9.0,56,0.00,,,0.00,WUHU216DAVISVP2,2013-05-28 18:23:00,
2013-05-28 14:28:00,83.0,66.7,30.13,NW,309,0.0,7.0,58,0.00,,,0.00,WUHU216DAVISVP2,2013-05-28 18:28:00,
2013-05-28 14:33:00,82.4,66.4,30.13,NE,56,0.0,8.0,58,0.00,,,0.00,WUHU216DAVISVP2,2013-05-28 18:33:00,
2013-05-28 14:38:00,82.4,66.9,30.13,ESE,120,0.0,8.0,59,0.00,,,0.00,WUHU216DAVISVP2,2013-05-28 18:38:00,
2013-05-28 14:44:00,82.6,67.1,30.13,NE,41,0.0,2.0,59,0.00,,,0.00,WUHU216DAVISVP2,2013-05-28 18:44:00,
2013-05-28 14:49:00,83.0,67.9,30.13,NE,41,0.0,0.0,60,0.00,,,0.00,WUHU216DAVISVP2,2013-05-28 18:49:00,
2013-05-28 14:54:00,83.6,68.5,30.13,NE,51,0.0,2.0,60,0.00,,,0.00,WUHU216DAVISVP2,2013-05-28 18:54:00,
2013-05-28 14:59:00,83.8,68.7,30.12,NNW,330,0.0,6.0,60,0.00,,,0.00,WUHU216DAVISVP2,2013-05-28 18:59:00,
2013-05-28 15:04:00,84.0,67.1,30.12,SW,227,0.0,6.0,57,0.00,,,0.00,WUHU216DAVISVP2,2013-05-28 19:04:00,
2013-05-28 15:09:00,83.8,67.9,30.12,North,10,0.0,2.0,59,0.00,,,0.00,WUHU216DAVISVP2,2013-05-28 19:09:00,
2013-05-28 15:14:00,83.6,68.0,30.13,East,85,0.0,6.0,59,0.00,,,0.00,WUHU216DAVISVP2,2013-05-28 19:14:00,
2013-05-28 15:19:00,83.8,67.7,30.13,SSW,196,0.0,6.0,58,0.00,,,0.00,WUHU216DAVISVP2,2013-05-28 19:19:00,
2013-05-28 15:24:00,83.8,68.2,30.13,North,350,0.0,0.0,59,0.00,,,0.00,WUHU216DAVISVP2,2013-05-28 19:24:00,
2013-05-28 15:29:00,83.8,67.7,30.13,NE,34,0.0,2.0,58,0.00,,,0.00,WUHU216DAVISVP2,2013-05-28 19:29:00,
2013-05-28 15:34:00,83.6,67.0,30.13,NNW,337,0.0,2.0,57,0.00,,,0.00,WUHU216DAVISVP2,2013-05-28 19:34:00,
2013-05-28 15:39:00,83.6,68.0,30.13,WSW,254,0.0,1.0,59,0.00,,,0.00,WUHU216DAVISVP2,2013-05-28 19:39:00,
2013-05-28 15:44:00,83.8,68.4,30.13,NE,34,0.0,7.0,60,0.00,,,0.00,WUHU216DAVISVP2,2013-05-28 19:44:00,
2013-05-28 15:50:00,83.6,67.0,30.13,North,352,0.0,7.0,57,0.00,,,0.00,WUHU216DAVISVP2,2013-05-28 19:50:00,
2013-05-28 15:55:00,83.8,66.9,30.13,North,0,0.0,1.0,57,0.00,,,0.00,WUHU216DAVISVP2,2013-05-28 19:55:00,
2013-05-28 16:00:00,83.8,67.4,30.12,NW,322,0.0,2.0,58,0.00,,,0.00,WUHU216DAVISVP2,2013-05-28 20:00:00,
2013-05-28 16:05:00,83.4,66.8,30.12,ENE,68,0.0,4.0,57,0.00,,,0.00,WUHU216DAVISVP2,2013-05-28 20:05:00,
2013-05-28 16:10:00,83.2,66.9,30.12,ENE,66,0.0,4.0,58,0.00,,,0.00,WUHU216DAVISVP2,2013-05-28 20:10:00,
2013-05-28 16:15:00,83.0,67.4,30.12,ESE,107,0.0,0.0,59,0.00,,,0.00,WUHU216DAVISVP2,2013-05-28 20:15:00,
2013-05-28 16:20:00,83.0,67.9,30.12,East,93,0.0,8.0,60,0.00,,,0.00,WUHU216DAVISVP2,2013-05-28 20:20:00,
2013-05-28 16:25:00,83.4,67.3,30.12,ESE,110,0.0,8.0,58,0.00,,,0.00,WUHU216DAVISVP2,2013-05-28 20:25:00,
2013-05-28 16:30:00,83.6,66.8,30.12,NNE,25,0.0,1.0,57,0.00,,,0.00,WUHU216DAVISVP2,2013-05-28 20:30:00,
2013-05-28 16:35:00,83.8,67.2,30.12,NNE,20,0.0,2.0,57,0.00,,,0.00,WUHU216DAVISVP2,2013-05-28 20:35:00,
2013-05-28 16:40:00,83.8,66.9,30.12,North,6,0.0,2.0,57,0.00,,,0.00,WUHU216DAVISVP2,2013-05-28 20:40:00,
2013-05-28 16:45:00,83.6,67.5,30.11,North,6,0.0,1.0,58,0.00,,,0.00,WUHU216DAVISVP2,2013-05-28 20:45:00,
2013-05-28 16:50:00,83.4,66.8,30.11,East,90,0.0,1.0,57,0.00,,,0.00,WUHU216DAVISVP2,2013-05-28 20:50:00,
2013-05-28 16:55:00,83.2,67.4,30.11,East,83,0.0,1.0,59,0.00,,,0.00,WUHU216DAVISVP2,2013-05-28 20:55:00,
2013-05-28 17:00:00,83.2,67.1,30.11,WNW,292,0.0,2.0,58,0.00,,,0.00,WUHU216DAVISVP2,2013-05-28 21:00:00,
2013-05-28 17:05:00,83.2,67.6,30.11,WNW,292,0.0,2.0,59,0.00,,,0.00,WUHU216DAVISVP2,2013-05-28 21:05:00,
2013-05-28 17:10:00,83.4,66.8,30.11,SSW,195,0.0,2.0,57,0.00,,,0.00,WUHU216DAVISVP2,2013-05-28 21:10:00,
2013-05-28 17:15:00,83.2,66.4,30.11,East,80,0.0,6.0,57,0.00,,,0.00,WUHU216DAVISVP2,2013-05-28 21:15:00,
2013-05-28 17:20:00,83.2,67.1,30.11,NNE,14,1.0,6.0,58,0.00,,,0.00,WUHU216DAVISVP2,2013-05-28 21:20:00,
2013-05-28 17:25:00,83.2,66.6,30.11,ESE,123,0.0,6.0,57,0.00,,,0.00,WUHU216DAVISVP2,2013-05-28 21:25:00,
2013-05-28 17:30:00,83.0,66.2,30.10,SSW,208,0.0,4.0,57,0.00,,,0.00,WUHU216DAVISVP2,2013-05-28 21:30:00,
2013-05-28 17:35:00,82.8,66.0,30.10,SE,124,0.0,4.0,57,0.00,,,0.00,WUHU216DAVISVP2,2013-05-28 21:35:00,
2013-05-28 17:40:00,82.6,65.3,30.10,NE,37,0.0,4.0,56,0.00,,,0.00,WUHU216DAVISVP2,2013-05-28 21:40:00,
2013-05-28 17:45:00,82.6,66.1,30.10,SW,220,0.0,6.0,57,0.00,,,0.00,WUHU216DAVISVP2,2013-05-28 21:45:00,
2013-05-28 17:50:00,82.6,66.1,30.10,ESE,113,0.0,6.0,57,0.00,,,0.00,WUHU216DAVISVP2,2013-05-28 21:50:00,
2013-05-28 17:55:00,82.4,65.3,30.10,South,189,0.0,1.0,56,0.00,,,0.00,WUHU216DAVISVP2,2013-05-28 21:55:00,
2013-05-28 18:00:00,82.4,65.9,30.10,East,93,0.0,1.0,57,0.00,,,0.00,WUHU216DAVISVP2,2013-05-28 22:00:00,
2013-05-28 18:05:00,82.2,65.4,30.10,SW,233,0.0,0.0,57,0.00,,,0.00,WUHU216DAVISVP2,2013-05-28 22:05:00,
2013-05-28 18:10:00,82.2,66.2,30.10,SW,233,0.0,0.0,58,0.00,,,0.00,WUHU216DAVISVP2,2013-05-28 22:10:00,
2013-05-28 18:15:00,82.2,66.7,30.10,SW,233,0.0,0.0,59,0.00,,,0.00,WUHU216DAVISVP2,2013-05-28 22:15:00,
2013-05-28 18:20:00,82.0,66.0,30.10,West,271,0.0,0.0,58,0.00,,,0.00,WUHU216DAVISVP2,2013-05-28 22:20:00,
2013-05-28 18:25:00,82.0,66.5,30.10,West,274,0.0,0.0,59,0.00,,,0.00,WUHU216DAVISVP2,2013-05-28 22:25:00,
2013-05-28 18:30:00,82.0,66.3,30.10,West,274,0.0,0.0,59,0.00,,,0.00,WUHU216DAVISVP2,2013-05-28 22:30:00,
2013-05-28 18:35:00,81.6,65.9,30.10,West,275,0.0,0.0,59,0.00,,,0.00,WUHU216DAVISVP2,2013-05-28 22:35:00,
2013-05-28 18:40:00,81.4,65.9,30.10,ENE,61,0.0,0.0,59,0.00,,,0.00,WUHU216DAVISVP2,2013-05-28 22:40:00,
2013-05-28 18:45:00,81.2,66.2,30.10,ESE,102,0.0,0.0,60,0.00,,,0.00,WUHU216DAVISVP2,2013-05-28 22:45:00,
2013-05-28 18:50:00,80.9,65.5,30.10,East,90,0.0,0.0,59,0.00,,,0.00,WUHU216DAVISVP2,2013-05-28 22:50:00,
2013-05-28 18:55:00,80.7,65.5,30.10,ESE,119,0.0,0.0,60,0.00,,,0.00,WUHU216DAVISVP2,2013-05-28 22:55:00,
2013-05-28 19:00:00,80.5,66.1,30.10,ESE,119,0.0,0.0,61,0.00,,,0.00,WUHU216DAVISVP2,2013-05-28 23:00:00,
2013-05-28 19:05:00,80.1,65.7,30.10,WNW,299,0.0,0.0,61,0.00,,,0.00,WUHU216DAVISVP2,2013-05-28 23:05:00,
2013-05-28 19:10:00,79.8,65.9,30.10,WNW,299,0.0,0.0,62,0.00,,,0.00,WUHU216DAVISVP2,2013-05-28 23:10:00,
2013-05-28 19:15:00,79.2,65.1,30.10,SSE,161,0.0,0.0,62,0.00,,,0.00,WUHU216DAVISVP2,2013-05-28 23:15:00,
2013-05-28 19:20:00,78.6,64.5,30.10,SSE,164,0.0,0.0,62,0.00,,,0.00,WUHU216DAVISVP2,2013-05-28 23:20:00,
2013-05-28 19:25:00,78.3,65.4,30.10,SSE,164,0.0,0.0,64,0.00,,,0.00,WUHU216DAVISVP2,2013-05-28 23:25:00,
2013-05-28 19:30:00,77.9,65.0,30.10,SSE,161,0.0,0.0,64,0.00,,,0.00,WUHU216DAVISVP2,2013-05-28 23:30:00,
2013-05-28 19:35:00,77.6,65.1,30.10,SSE,161,0.0,0.0,65,0.00,,,0.00,WUHU216DAVISVP2,2013-05-28 23:35:00,
2013-05-28 19:40:00,77.2,65.2,30.10,SSE,161,0.0,0.0,66,0.00,,,0.00,WUHU216DAVISVP2,2013-05-28 23:40:00,
2013-05-28 19:45:00,76.8,64.8,30.09,SSE,161,0.0,0.0,66,0.00,,,0.00,WUHU216DAVISVP2,2013-05-28 23:45:00,
2013-05-28 19:50:00,76.5,64.7,30.09,SSE,161,0.0,0.0,67,0.00,,,0.00,WUHU216DAVISVP2,2013-05-28 23:50:00,
2013-05-28 19:55:00,76.1,64.3,30.09,SSE,161,0.0,0.0,67,0.00,,,0.00,WUHU216DAVISVP2,2013-05-28 23:55:00,
2013-05-28 20:00:00,76.0,64.5,30.10,SSE,161,0.0,0.0,67,0.00,,,0.00,WUHU216DAVISVP2,2013-05-29 00:00:00,
2013-05-28 20:05:00,75.6,64.3,30.10,SSE,161,0.0,0.0,68,0.00,,,0.00,WUHU216DAVISVP2,2013-05-29 00:05:00,
2013-05-28 20:10:00,75.3,64.2,30.10,SSE,161,0.0,0.0,68,0.00,,,0.00,WUHU216DAVISVP2,2013-05-29 00:10:00,
2013-05-28 20:15:00,74.9,63.8,30.10,SSE,161,0.0,0.0,68,0.00,,,0.00,WUHU216DAVISVP2,2013-05-29 00:15:00,
2013-05-28 20:20:00,74.7,64.1,30.10,SSE,161,0.0,0.0,69,0.00,,,0.00,WUHU216DAVISVP2,2013-05-29 00:20:00,
2013-05-28 20:25:00,74.4,64.0,30.10,SSE,161,0.0,0.0,70,0.00,,,0.00,WUHU216DAVISVP2,2013-05-29 00:25:00,
2013-05-28 20:30:00,74.0,63.8,30.11,SSE,161,0.0,0.0,70,0.00,,,0.00,WUHU216DAVISVP2,2013-05-29 00:30:00,
2013-05-28 20:35:00,73.9,63.7,30.11,SSE,161,0.0,0.0,70,0.00,,,0.00,WUHU216DAVISVP2,2013-05-29 00:35:00,
2013-05-28 20:40:00,73.5,63.3,30.11,SSE,161,0.0,0.0,70,0.00,,,0.00,WUHU216DAVISVP2,2013-05-29 00:40:00,
2013-05-28 20:45:00,73.2,63.0,30.11,SSE,161,0.0,0.0,70,0.00,,,0.00,WUHU216DAVISVP2,2013-05-29 00:45:00,
2013-05-28 20:50:00,72.8,63.0,30.11,SSE,161,0.0,0.0,71,0.00,,,0.00,WUHU216DAVISVP2,2013-05-29 00:50:00,
2013-05-28 20:55:00,72.7,62.9,30.11,SSE,161,0.0,0.0,71,0.00,,,0.00,WUHU216DAVISVP2,2013-05-29 00:55:00,
2013-05-28 21:00:00,72.3,62.9,30.10,SSE,161,0.0,0.0,72,0.00,,,0.00,WUHU216DAVISVP2,2013-05-29 01:00:00,
2013-05-28 21:05:00,72.1,62.6,30.10,SSE,161,0.0,0.0,72,0.00,,,0.00,WUHU216DAVISVP2,2013-05-29 01:05:00,
2013-05-28 21:10:00,71.8,62.5,30.10,SSE,161,0.0,0.0,72,0.00,,,0.00,WUHU216DAVISVP2,2013-05-29 01:10:00,
2013-05-28 21:15:00,71.6,62.6,30.11,SSE,161,0.0,0.0,73,0.00,,,0.00,WUHU216DAVISVP2,2013-05-29 01:15:00,
2013-05-28 21:20:00,71.3,62.4,30.11,SSE,161,0.0,0.0,73,0.00,,,0.00,WUHU216DAVISVP2,2013-05-29 01:20:00,
2013-05-28 21:25:00,71.1,62.0,30.11,SSE,161,0.0,0.0,73,0.00,,,0.00,WUHU216DAVISVP2,2013-05-29 01:25:00,
2013-05-28 21:30:00,70.8,62.1,30.11,SSE,161,0.0,0.0,74,0.00,,,0.00,WUHU216DAVISVP2,2013-05-29 01:30:00,
2013-05-28 21:35:00,70.6,62.1,30.11,SSE,161,0.0,0.0,74,0.00,,,0.00,WUHU216DAVISVP2,2013-05-29 01:35:00,
2013-05-28 21:40:00,70.4,61.9,30.11,SSE,161,0.0,0.0,74,0.00,,,0.00,WUHU216DAVISVP2,2013-05-29 01:40:00,
2013-05-28 21:45:00,70.1,61.6,30.11,SSE,161,0.0,0.0,74,0.00,,,0.00,WUHU216DAVISVP2,2013-05-29 01:45:00,
2013-05-28 21:50:00,69.9,61.8,30.11,SSE,161,0.0,0.0,75,0.00,,,0.00,WUHU216DAVISVP2,2013-05-29 01:50:00,
2013-05-28 21:55:00,69.8,61.7,30.11,SSE,161,0.0,0.0,75,0.00,,,0.00,WUHU216DAVISVP2,2013-05-29 01:55:00,
2013-05-28 22:00:00,69.8,61.9,30.11,SSE,161,0.0,0.0,76,0.00,,,0.00,WUHU216DAVISVP2,2013-05-29 02:00:00,
2013-05-28 22:05:00,69.6,61.7,30.11,SSE,161,0.0,0.0,76,0.00,,,0.00,WUHU216DAVISVP2,2013-05-29 02:05:00,
2013-05-28 22:10:00,69.4,62.0,30.11,SSE,161,0.0,0.0,77,0.00,,,0.00,WUHU216DAVISVP2,2013-05-29 02:10:00,
2013-05-28 22:15:00,69.4,62.0,30.11,SSE,161,0.0,0.0,77,0.00,,,0.00,WUHU216DAVISVP2,2013-05-29 02:15:00,
2013-05-28 22:20:00,69.3,61.9,30.11,SSE,161,0.0,0.0,77,0.00,,,0.00,WUHU216DAVISVP2,2013-05-29 02:20:00,
2013-05-28 22:25:00,69.3,62.2,30.11,SSE,161,0.0,0.0,78,0.00,,,0.00,WUHU216DAVISVP2,2013-05-29 02:25:00,
2013-05-28 22:30:00,69.1,62.1,30.11,SSE,161,0.0,0.0,78,0.00,,,0.00,WUHU216DAVISVP2,2013-05-29 02:30:00,
2013-05-28 22:35:00,69.1,62.1,30.11,SSE,161,0.0,0.0,78,0.00,,,0.00,WUHU216DAVISVP2,2013-05-29 02:35:00,
2013-05-28 22:40:00,69.1,62.1,30.11,SSE,161,0.0,0.0,78,0.00,,,0.00,WUHU216DAVISVP2,2013-05-29 02:40:00,
2013-05-28 22:45:00,69.1,61.9,30.12,SSE,161,0.0,0.0,78,0.00,,,0.00,WUHU216DAVISVP2,2013-05-29 02:45:00,
2013-05-28 22:50:00,68.9,62.2,30.12,SSE,161,0.0,0.0,79,0.00,,,0.00,WUHU216DAVISVP2,2013-05-29 02:50:00,
2013-05-28 22:55:00,68.9,62.2,30.12,SSE,161,0.0,0.0,79,0.00,,,0.00,WUHU216DAVISVP2,2013-05-29 02:55:00,
2013-05-28 23:00:00,68.9,62.1,30.12,SSE,161,0.0,0.0,79,0.00,,,0.00,WUHU216DAVISVP2,2013-05-29 03:00:00,
2013-05-28 23:05:00,68.9,62.1,30.12,SSE,161,0.0,0.0,79,0.00,,,0.00,WUHU216DAVISVP2,2013-05-29 03:05:00,
2013-05-28 23:10:00,68.9,62.6,30.12,SSE,161,0.0,0.0,80,0.00,,,0.00,WUHU216DAVISVP2,2013-05-29 03:10:00,
2013-05-28 23:15:00,68.9,62.6,30.13,SSE,161,0.0,0.0,80,0.00,,,0.00,WUHU216DAVISVP2,2013-05-29 03:15:00,
2013-05-28 23:20:00,68.8,62.5,30.13,SSE,161,0.0,0.0,80,0.00,,,0.00,WUHU216DAVISVP2,2013-05-29 03:20:00,
2013-05-28 23:25:00,68.8,62.5,30.13,SSE,161,0.0,0.0,80,0.00,,,0.00,WUHU216DAVISVP2,2013-05-29 03:25:00,
2013-05-28 23:30:00,68.8,62.5,30.13,SSE,161,0.0,0.0,80,0.00,,,0.00,WUHU216DAVISVP2,2013-05-29 03:30:00,
2013-05-28 23:35:00,68.8,62.5,30.13,SSE,161,0.0,0.0,80,0.00,,,0.00,WUHU216DAVISVP2,2013-05-29 03:35:00,
2013-05-28 23:40:00,68.6,62.3,30.13,SSE,161,0.0,0.0,80,0.00,,,0.00,WUHU216DAVISVP2,2013-05-29 03:40:00,
2013-05-28 23:45:00,68.6,62.3,30.13,SSE,161,0.0,0.0,80,0.00,,,0.00,WUHU216DAVISVP2,2013-05-29 03:45:00,
2013-05-28 23:50:00,68.4,62.1,30.13,SSE,161,0.0,0.0,80,0.00,,,0.00,WUHU216DAVISVP2,2013-05-29 03:50:00,
2013-05-28 23:55:00,68.4,62.0,30.13,SSE,161,0.0,0.0,80,0.00,,,0.00,WUHU216DAVISVP2,2013-05-29 03:55:00,